createdAt,value
2019-04-20T00:02:29.538Z,45.35
2019-04-20T00:06:46.737Z,46.75
2019-04-20T00:11:01.510Z,47.27
2019-04-20T00:15:09.344Z,47.79
2019-04-20T00:19:24.331Z,48.19
2019-04-20T00:23:47.742Z,48.69
2019-04-20T00:28:31.616Z,48.10
2019-04-20T00:32:41.508Z,49.91
2019-04-20T00:36:41.160Z,49.59
2019-04-20T00:40:59.411Z,47.47
2019-04-20T00:45:30.164Z,48.95
2019-04-20T00:49:52.337Z,51.43
2019-04-20T00:58:18.512Z,51.52
2019-04-20T01:02:32.627Z,52.30
2019-04-20T01:07:11.640Z,50.40
2019-04-20T01:11:08.114Z,50.50
2019-04-20T01:15:31.937Z,51.87
2019-04-20T01:19:35.471Z,54.46
2019-04-20T01:23:48.961Z,54.46
2019-04-20T01:28:24.283Z,53.91
2019-04-20T01:32:23.378Z,55.80
2019-04-20T01:36:46.144Z,52.40
2019-04-20T01:40:38.444Z,53.12
2019-04-20T01:44:47.311Z,55.65
2019-04-20T01:49:15.654Z,58.01
2019-04-20T02:02:43.804Z,58.60
2019-04-20T02:11:06.221Z,59.23
2019-04-20T02:15:26.174Z,59.08
2019-04-20T02:19:41.582Z,58.79
2019-04-20T02:23:50.978Z,58.34
2019-04-20T02:28:06.453Z,59.52
2019-04-20T02:33:30.012Z,59.33
2019-04-20T02:38:08.395Z,59.63
2019-04-20T02:41:59.748Z,60.98
2019-04-20T02:46:31.787Z,59.66
2019-04-20T02:55:15.205Z,60.53
2019-04-20T03:03:20.512Z,60.96
2019-04-20T03:07:34.353Z,60.23
2019-04-20T03:12:05.017Z,62.34
2019-04-20T03:20:32.270Z,63.02
2019-04-20T03:24:43.666Z,63.02
2019-04-20T03:33:23.187Z,62.41
2019-04-20T03:37:26.718Z,62.60
2019-04-20T03:41:25.379Z,62.39
2019-04-20T03:45:39.380Z,63.34
2019-04-20T03:54:30.649Z,63.38
2019-04-20T03:59:17.399Z,63.77
2019-04-20T04:08:04.020Z,64.25
2019-04-20T04:12:54.862Z,65.17
2019-04-20T04:17:02.617Z,65.12
2019-04-20T04:21:20.309Z,64.93
2019-04-20T04:26:22.475Z,64.82
2019-04-20T04:30:16.978Z,64.69
2019-04-20T04:34:34.712Z,65.13
2019-04-20T04:38:51.793Z,64.42
2019-04-20T04:43:00.759Z,63.49
2019-04-20T04:46:59.380Z,63.18
2019-04-20T04:51:33.233Z,62.25
2019-04-20T04:55:50.096Z,61.05
2019-04-20T05:05:04.541Z,61.52
2019-04-20T05:09:00.860Z,62.01
2019-04-20T05:13:09.425Z,60.36
2019-04-20T05:17:33.972Z,62.10
2019-04-20T05:22:14.901Z,60.98
2019-04-20T05:36:10.018Z,60.52
2019-04-20T05:40:25.066Z,59.96
2019-04-20T05:44:46.049Z,60.06
2019-04-20T05:49:00.351Z,59.84
2019-04-20T05:53:24.101Z,58.62
2019-04-20T05:57:54.485Z,58.41
2019-04-20T06:02:07.517Z,59.19
2019-04-20T06:06:13.860Z,57.86
2019-04-20T06:10:45.239Z,57.22
2019-04-20T06:15:02.688Z,57.28
2019-04-20T06:24:11.843Z,55.67
2019-04-20T06:28:19.738Z,54.81
2019-04-20T06:33:17.268Z,54.87
2019-04-20T06:37:39.157Z,53.79
2019-04-20T06:46:15.231Z,51.95
2019-04-20T06:54:58.155Z,50.71
2019-04-20T06:59:20.041Z,50.38
2019-04-20T07:03:47.122Z,49.22
2019-04-20T07:07:47.600Z,49.91
2019-04-20T07:11:57.046Z,49.28
2019-04-20T07:20:56.801Z,46.90
2019-04-20T07:25:21.458Z,46.07
2019-04-20T07:29:26.970Z,45.20
2019-04-20T07:34:04.771Z,45.14
2019-04-20T07:38:31.313Z,43.71
2019-04-20T07:42:51.835Z,43.55
2019-04-20T07:50:55.524Z,41.06
2019-04-20T07:55:33.004Z,41.24
2019-04-20T07:59:25.293Z,39.95
2019-04-20T08:08:02.918Z,38.79
2019-04-20T08:13:07.580Z,37.01
2019-04-20T08:17:48.474Z,36.13
2019-04-20T08:26:20.184Z,34.72
2019-04-20T08:35:56.598Z,33.55
2019-04-20T08:40:01.537Z,32.58
2019-04-20T08:44:35.325Z,33.00
2019-04-20T08:48:46.098Z,31.17
2019-04-20T08:57:15.738Z,31.17
2019-04-20T09:01:46.756Z,30.32
2019-04-20T09:06:01.011Z,31.33
2019-04-20T09:10:24.388Z,29.37
2019-04-20T09:14:20.918Z,29.03
2019-04-20T09:18:41.824Z,28.31
2019-04-20T09:22:50.653Z,28.17
2019-04-20T09:27:04.785Z,27.68
2019-04-20T09:31:39.330Z,27.85
2019-04-20T09:35:57.711Z,27.71
2019-04-20T09:40:40.224Z,26.93
2019-04-20T09:44:48.841Z,27.65
2019-04-20T09:48:58.876Z,27.54
2019-04-20T09:53:17.081Z,26.10
2019-04-20T09:57:25.508Z,25.93
2019-04-20T10:01:27.224Z,26.12
2019-04-20T10:05:20.677Z,26.95
2019-04-20T10:09:32.591Z,26.48
2019-04-20T10:13:34.346Z,26.98
2019-04-20T10:17:39.573Z,25.65
2019-04-20T10:21:45.706Z,25.67
2019-04-20T10:25:51.201Z,25.12
2019-04-20T10:30:00.696Z,24.95
2019-04-20T10:34:04.671Z,24.77
2019-04-20T10:38:21.448Z,24.29
2019-04-20T10:42:27.796Z,25.67
2019-04-20T10:46:33.365Z,24.23
2019-04-20T10:50:43.086Z,24.76
2019-04-20T10:54:48.289Z,24.71
2019-04-20T10:58:53.852Z,23.58
2019-04-20T11:02:59.666Z,23.49
2019-04-20T11:07:04.902Z,23.75
2019-04-20T11:11:18.010Z,23.70
2019-04-20T11:15:18.682Z,23.05
2019-04-20T11:19:25.186Z,22.42
2019-04-20T11:23:31.998Z,22.39
2019-04-20T11:27:38.366Z,22.56
2019-04-20T11:31:47.756Z,22.42
2019-04-20T11:35:51.542Z,22.17
2019-04-20T11:39:57.066Z,23.42
2019-04-20T11:44:02.247Z,22.69
2019-04-20T11:48:07.560Z,23.48
2019-04-20T11:52:13.648Z,22.20
2019-04-20T11:56:25.759Z,21.59
2019-04-20T12:00:45.822Z,20.94
2019-04-20T12:05:08.859Z,21.10
2019-04-20T12:09:08.225Z,20.41
2019-04-20T12:13:14.725Z,19.34
2019-04-20T12:17:19.925Z,19.79
2019-04-20T12:21:26.414Z,20.81
2019-04-20T12:25:34.272Z,21.12
2019-04-20T12:29:38.720Z,20.27
2019-04-20T12:33:44.310Z,21.20
2019-04-20T12:37:51.356Z,20.69
2019-04-20T12:42:00.746Z,20.31
2019-04-20T12:46:03.441Z,19.58
2019-04-20T12:50:11.836Z,20.27
2019-04-20T12:54:17.047Z,20.18
2019-04-20T12:58:22.889Z,18.27
2019-04-20T13:02:29.322Z,19.55
2019-04-20T13:06:37.130Z,17.16
2019-04-20T13:10:44.472Z,18.22
2019-04-20T13:15:44.736Z,17.49
2019-04-20T13:19:50.981Z,18.78
2019-04-20T13:23:56.548Z,17.89
2019-04-20T13:28:03.078Z,18.91
2019-04-20T13:32:09.662Z,17.73
2019-04-20T13:36:16.503Z,18.23
2019-04-20T13:40:23.568Z,18.43
2019-04-20T13:44:28.950Z,17.81
2019-04-20T13:48:35.113Z,17.88
2019-04-20T13:52:40.644Z,17.30
2019-04-20T13:56:48.011Z,18.48
2019-04-20T14:01:02.970Z,17.46
2019-04-20T14:05:08.716Z,17.75
2019-04-20T14:09:15.080Z,17.50
2019-04-20T14:13:22.203Z,17.26
2019-04-20T14:17:27.158Z,17.39
2019-04-20T14:21:32.339Z,16.70
2019-04-20T14:25:38.660Z,16.09
2019-04-20T14:29:46.244Z,16.81
2019-04-20T14:33:51.204Z,17.43
2019-04-20T14:37:57.555Z,17.03
2019-04-20T14:42:02.908Z,18.25
2019-04-20T14:46:08.510Z,17.41
2019-04-20T14:50:14.248Z,17.61
2019-04-20T14:54:19.342Z,17.27
2019-04-20T14:58:43.383Z,17.42
2019-04-20T15:02:50.007Z,17.52
2019-04-20T15:06:55.116Z,15.59
2019-04-20T15:11:01.029Z,15.59
2019-04-20T15:15:06.413Z,17.75
2019-04-20T15:19:37.177Z,15.95
2019-04-20T15:23:43.737Z,17.10
2019-04-20T15:27:50.065Z,16.06
2019-04-20T15:31:56.520Z,17.34
2019-04-20T15:36:02.216Z,18.32
2019-04-20T15:40:08.848Z,18.07
2019-04-20T15:44:15.384Z,17.18
2019-04-20T15:48:21.874Z,18.25
2019-04-20T15:52:31.886Z,18.25
2019-04-20T15:56:35.366Z,17.48
2019-04-20T16:00:40.607Z,16.75
2019-04-20T16:04:52.590Z,17.83
2019-04-20T16:09:00.009Z,17.35
2019-04-20T16:13:19.366Z,17.53
2019-04-20T16:17:15.067Z,16.00
2019-04-20T16:21:24.369Z,16.90
2019-04-20T16:25:43.744Z,17.02
2019-04-20T16:29:49.547Z,18.21
2019-04-20T16:33:56.871Z,18.54
2019-04-20T16:38:02.542Z,17.17
2019-04-20T16:42:09.488Z,17.66
2019-04-20T16:46:34.473Z,17.94
2019-04-20T16:50:40.660Z,18.27
2019-04-20T16:54:46.073Z,18.59
2019-04-20T16:58:54.629Z,18.15
2019-04-20T17:02:58.518Z,18.47
2019-04-20T17:07:21.435Z,18.27
2019-04-20T17:11:27.730Z,18.03
2019-04-20T17:15:33.851Z,19.31
2019-04-20T17:19:39.867Z,19.65
2019-04-20T17:23:46.881Z,18.98
2019-04-20T17:27:59.447Z,18.99
2019-04-20T17:32:09.815Z,20.06
2019-04-20T17:36:52.734Z,21.24
2019-04-20T17:41:13.741Z,21.38
2019-04-20T17:45:14.082Z,20.69
2019-04-20T17:49:29.563Z,23.05
2019-04-20T17:53:58.555Z,23.18
2019-04-20T17:58:14.724Z,24.23
2019-04-20T18:02:53.470Z,24.49
2019-04-20T18:06:53.726Z,23.97
2019-04-20T18:10:58.552Z,24.46
2019-04-20T18:15:12.142Z,25.47
2019-04-20T18:19:18.981Z,25.99
2019-04-20T18:23:26.973Z,25.96
2019-04-20T18:27:54.972Z,27.34
2019-04-20T18:32:21.551Z,26.24
2019-04-20T18:36:31.215Z,27.79
2019-04-20T18:40:45.707Z,28.45
2019-04-20T18:45:04.209Z,27.80
2019-04-20T18:49:05.387Z,28.43
2019-04-20T18:52:56.179Z,28.59
2019-04-20T18:57:01.736Z,29.10
2019-04-20T19:01:07.551Z,29.43
2019-04-20T19:05:13.701Z,30.12
2019-04-20T19:09:25.702Z,30.42
2019-04-20T19:13:37.629Z,30.60
2019-04-20T19:18:04.232Z,31.48
2019-04-20T19:21:56.580Z,30.41
2019-04-20T19:26:08.447Z,31.08
2019-04-20T19:30:21.220Z,30.75
2019-04-20T19:34:35.377Z,30.71
2019-04-20T19:38:30.227Z,30.58
2019-04-20T19:42:42.263Z,31.02
2019-04-20T19:47:00.841Z,31.05
2019-04-20T19:51:06.911Z,31.97
2019-04-20T19:55:10.581Z,32.79
2019-04-20T19:59:12.071Z,32.52
2019-04-20T20:03:05.828Z,32.68
2019-04-20T20:07:21.949Z,32.94
2019-04-20T20:11:26.464Z,33.00
2019-04-20T20:15:32.013Z,33.02
2019-04-20T20:20:03.701Z,32.90
2019-04-20T20:23:41.948Z,32.87
2019-04-20T20:27:54.720Z,32.54
2019-04-20T20:32:05.124Z,32.39
2019-04-20T20:36:09.519Z,31.50
2019-04-20T20:40:21.038Z,32.02
2019-04-20T20:44:27.663Z,31.30
2019-04-20T20:48:36.898Z,31.57
2019-04-20T20:52:46.524Z,32.15
2019-04-20T20:56:46.756Z,31.47
2019-04-20T21:00:54.350Z,31.92
2019-04-20T21:04:51.444Z,31.95
2019-04-20T21:08:59.942Z,31.96
2019-04-20T21:13:07.336Z,32.28
2019-04-20T21:17:17.619Z,32.15
2019-04-20T21:21:32.338Z,32.69
2019-04-20T21:25:34.517Z,32.62
2019-04-20T21:29:41.398Z,32.68
2019-04-20T21:33:42.841Z,32.33
2019-04-20T21:37:55.473Z,32.50
2019-04-20T21:42:04.180Z,32.53
2019-04-20T21:46:06.325Z,32.75
2019-04-20T21:50:26.580Z,32.89
2019-04-20T21:54:16.162Z,32.70
2019-04-20T21:58:27.728Z,33.03
2019-04-20T22:02:37.742Z,33.10
2019-04-20T22:06:38.230Z,33.05
2019-04-20T22:10:44.846Z,33.11
2019-04-20T22:15:00.002Z,33.04
2019-04-20T22:19:14.523Z,33.11
2019-04-20T22:23:15.783Z,32.99
2019-04-20T22:27:20.096Z,32.70
2019-04-20T22:31:20.232Z,33.31
2019-04-20T22:35:26.139Z,32.96
2019-04-20T22:39:41.351Z,33.61
2019-04-20T22:43:42.184Z,33.30
2019-04-20T22:47:48.142Z,33.35
2019-04-20T22:52:05.297Z,33.47
2019-04-20T22:56:19.759Z,33.50
2019-04-20T23:00:15.959Z,33.66
2019-04-20T23:04:19.177Z,33.57
2019-04-20T23:08:24.784Z,33.73
2019-04-20T23:12:30.919Z,34.27
2019-04-20T23:16:43.189Z,34.42
2019-04-20T23:20:45.912Z,33.62
2019-04-20T23:24:53.299Z,33.73
2019-04-20T23:29:04.979Z,33.77
2019-04-20T23:33:12.319Z,34.64
2019-04-20T23:37:24.575Z,34.44
2019-04-20T23:41:23.897Z,34.85
2019-04-20T23:46:01.159Z,34.34
2019-04-20T23:50:37.331Z,34.36
2019-04-20T23:54:29.630Z,34.83
2019-04-20T23:58:38.205Z,34.46
